Flight Track Log - Related Links

Times and Time Zones

All times are in EDT time to prevent confusion due to time zone crossing. See the UPS1337 flight status page for this flight to view local times or setup timezone preferences in your user account.

Time Position Orientation Groundspeed Altitude Reporting Facility
EDT Latitude Longitude Course Direction KTS MPH feet Rate Location/Type
Sat 12:06:50 AM 35.8686 -78.8089 263° West 154 177 1,800  Level Washington Center
Sat 12:10:56 AM 35.8333 -79.1414 284° West 280 322 12,300 2,706 Climbing Atlanta Center
Sat 12:11:56 AM 35.8528 -79.2658 281° West 325 374 15,600 2,950 Climbing Atlanta Center
Sat 12:12:56 AM 35.8867 -79.3894 289° West 371 427 18,200 2,700 Climbing Atlanta Center
Sat 12:13:56 AM 35.9231 -79.5258 288° West 376 433 21,000 2,500 Climbing Atlanta Center
Sat 12:14:56 AM 35.9544 -79.6444 288° West 396 456 23,200 2,050 Climbing Atlanta Center
Sat 12:15:00 AM 35.9817 -79.7418 284° West  Level FlightAware Approximate
Sat 12:15:56 AM 35.9908 -79.7839 288° West 409 471 25,100  Level Atlanta Center
Sat 12:16:56 AM 36.0289 -79.9256 288° West 421 484 26,800 1,950 Climbing Atlanta Center
Sat 12:17:56 AM 36.0672 -80.0700 288° West 432 497 29,000 2,350 Climbing Atlanta Center
Sat 12:18:56 AM 36.1053 -80.2222 287° West 432 497 31,500 1,500 Climbing Atlanta Center
Sat 12:19:56 AM 36.1408 -80.3619 288° West 432 497 32,000 250 Climbing Atlanta Center
Sat 12:20:56 AM 36.1764 -80.5019 288° West 432 497 32,000  Level Atlanta Center
Sat 12:21:56 AM 36.2111 -80.6239 289° West 432 497 32,000  Level Atlanta Center
Sat 12:22:56 AM 36.2461 -80.7642 287° West 432 497 32,000  Level Atlanta Center
Sat 12:23:56 AM 36.2811 -80.9017 288° West 432 497 32,000  Level Atlanta Center
Sat 12:24:56 AM 36.3303 -81.0364 294° West 432 497 32,000  Level Atlanta Center
Sat 12:25:56 AM 36.3772 -81.1686 294° West 432 497 32,000  Level Atlanta Center
Sat 12:26:56 AM 36.4242 -81.3064 293° West 427 491 32,000  Level Atlanta Center
Sat 12:27:56 AM 36.4750 -81.4389 296° West 427 491 32,000  Level Atlanta Center
Sat 12:28:56 AM 36.5217 -81.5742 293° West 434 499 32,000  Level Atlanta Center
Sat 12:29:56 AM 36.5658 -81.7047 293° West 420 483 32,000  Level Atlanta Center
Sat 12:30:56 AM 36.6119 -81.8378 293° West 415 478 32,000  Level Atlanta Center
Sat 12:31:36 AM 36.6447 -81.9256 295° West 415 478 32,000  Level Indianapolis Center
Sat 12:32:36 AM 36.6900 -82.0550 294° West 411 473 32,000  Level Indianapolis Center
Sat 12:33:37 AM 36.7342 -82.1822 293° West 401 461 32,000  Level Indianapolis Center
Sat 12:34:37 AM 36.7783 -82.3092 294° West 401 461 32,000  Level Indianapolis Center
Sat 12:35:38 AM 36.8222 -82.4367 293° West 400 460 32,000  Level Indianapolis Center
Sat 12:36:38 AM 36.8661 -82.5644 293° West 401 461 32,000  Level Indianapolis Center
Sat 12:37:39 AM 36.9106 -82.6936 293° West 402 463 32,000  Level Indianapolis Center
Sat 12:38:39 AM 36.9567 -82.8286 293° West 404 465 32,000  Level Indianapolis Center
Sat 12:39:40 AM 37.0036 -82.9669 293° West 404 465 32,000  Level Indianapolis Center
Sat 12:40:40 AM 37.0467 -83.0950 293° West 403 464 32,000  Level Indianapolis Center
Sat 12:41:41 AM 37.0900 -83.2236 293° West 403 464 32,000  Level Indianapolis Center
Sat 12:42:41 AM 37.1333 -83.3528 293° West 402 463 32,000  Level Indianapolis Center
Sat 12:43:42 AM 37.1761 -83.4817 293° West 402 463 32,000  Level Indianapolis Center
Sat 12:44:42 AM 37.2189 -83.6103 293° West 401 461 32,000  Level Indianapolis Center
Sat 12:45:43 AM 37.2611 -83.7381 293° West 399 459 32,000 -347 Level Indianapolis Center
Sat 12:46:43 AM 37.3036 -83.8669 293° West 399 459 31,300 -1,438 Descending Indianapolis Center
Sat 12:47:44 AM 37.3461 -83.9969 292° West 400 460 29,100 -2,628 Descending Indianapolis Center
Sat 12:48:44 AM 37.3886 -84.1269 292° West 401 461 26,000 -3,124 Descending Indianapolis Center
Sat 12:49:45 AM 37.4314 -84.2578 292° West 403 464 22,800 -3,223 Descending Indianapolis Center
Sat 12:50:45 AM 37.4731 -84.3867 292° West 396 456 19,500 -3,100 Descending Indianapolis Center
Sat 12:51:45 AM 37.5136 -84.5119 292° West 383 441 16,600 -2,975 Descending Indianapolis Center
Sat 12:52:46 AM 37.5536 -84.6372 292° West 377 434 13,500 -2,380 Descending Indianapolis Center
Sat 12:53:46 AM 37.5906 -84.7528 292° West 366 421 11,800 -1,537 Descending Indianapolis Center
Sat 12:54:47 AM 37.6289 -84.8725 292° West 356 410 10,400 -992 Descending Indianapolis Center
Sat 12:55:47 AM 37.6683 -84.9731 296° West 322 371 9,800 -850 Descending Indianapolis Center
Sat 12:56:47 AM 37.7239 -85.0486 313° West 277 319 8,700 -1,488 Descending Indianapolis Center
Sat 12:57:48 AM 37.7733 -85.1175 312° West 275 316 6,800 -1,339 Descending Indianapolis Center
Sat 12:58:48 AM 37.8233 -85.1872 312° West 271 312 6,000 -595 Descending Indianapolis Center
Sat 12:59:49 AM 37.8408 -85.2789 284° West 268 308 5,600 -885 Descending Indianapolis Center
Sat 01:00:50 AM 37.8564 -85.3756 282° West 267 307 4,200 -1,041 Descending Indianapolis Center
Sat 01:01:50 AM 37.8711 -85.4547 283° West 267 307 3,500 -550 Descending Indianapolis Center
Sat 01:02:50 AM 37.9036 -85.5442 295° West 225 259 3,100 -198 Descending Indianapolis Center
Sat 01:03:51 AM 37.9372 -85.6117 302° West 228 262 3,100  Level Indianapolis Center
Sat 01:04:51 AM 37.9647 -85.6747 299° West 216 249 3,100  Level Indianapolis Center
Sat 01:05:51 AM 38.0164 -85.6922 345° North 203 234 3,100 -198 Level Indianapolis Center
Sat 01:06:52 AM 38.0622 -85.7053 347° North 198 228 2,700 -393 Descending Indianapolis Center
Sat 01:09:00 AM 38.1741 -85.7365 339° North  Level Estimated
Sat 01:16:00 AM 38.1741 -85.7365 208° Southwest  Level Estimated

Login

Don't have an account? Register now (free) for customized features, flight alerts, and more!